Home > Products > Valid Products > TAF

000
FTUS46 KSTO 041737
TAFRDD
TAF
KRDD 041737Z 0418/0518 20005KT P6SM SKC
     FM042100 18010KT P6SM SCT250
     FM050400 15004KT P6SM OVC250
     FM051200 VRB04KT P6SM SKC=



000
FTUS46 KSTO 041737
TAFSMF
TAF
KSMF 041737Z 0418/0518 18007KT P6SM FEW150 FEW250
     FM042000 18010KT P6SM OVC250
     FM050200 21010KT P6SM BKN250
     FM050600 15010KT P6SM SCT250
      TEMPO 0512/0516 OVC010=



000
FTUS46 KSTO 041737
TAFSCK
TAF
KSCK 041737Z 0418/0518 30007KT P6SM SCT250
     FM042300 29014KT P6SM BKN250
     FM050800 VRB05KT P6SM SKC=



000
FTUS46 KSTO 041737
TAFMHR
TAF
KMHR 041737Z 0418/0518 20009KT P6SM SCT150 BKN250
     FM042000 21011KT P6SM SCT120 BKN250
     FM050600 20008KT P6SM SCT250
      TEMPO 0512/0516 OVC010=



000
FTUS46 KSTO 041737
TAFSAC
TAF
KSAC 041737Z 0418/0518 21011KT P6SM SCT150 BKN250
     FM042000 22010KT P6SM BKN250
     FM050600 22008KT P6SM SCT250
      TEMPO 0512/0516 OVC010=



000
FTUS46 KSTO 041737
TAFRBL
TAF
KRBL 041737Z 0418/0518 17005KT P6SM SKC
     FM050000 17010KT P6SM BKN250
     FM050400 VRB03KT P6SM OVC250
     FM051000 VRB05KT P6SM SKC=



000
FTUS46 KSTO 041132
TAFRDD
TAF
KRDD 041132Z 0412/0512 18005KT P6SM SKC
     FM042100 18010KT P6SM SCT250
     FM050400 15004KT P6SM BKN250=



000
FTUS46 KSTO 041132
TAFRBL
TAF
KRBL 041132Z 0412/0512 14008KT P6SM SKC
     FM042000 17011KT P6SM BKN250
     FM050400 36003KT P6SM BKN250=



000
FTUS46 KSTO 041132
TAFSCK
TAF
KSCK 041132Z 0412/0512 30011KT P6SM SCT250
     FM042300 29014KT P6SM BKN250
     FM050600 30010KT P6SM SKC=



000
FTUS46 KSTO 041132
TAFSAC
TAF
KSAC 041132Z 0412/0512 19009KT P6SM FEW250
     FM041700 21011KT P6SM SCT150 BKN250
     FM042000 22012G17KT P6SM VCSH SCT120 BKN250
     FM050600 20008KT P6SM SCT250=



000
FTUS46 KSTO 041132
TAFMHR
TAF
KMHR 041132Z 0412/0512 16008KT P6SM SKC
     FM041800 20009KT P6SM SCT150 BKN250
     FM042000 21011KT P6SM VCSH SCT120 BKN250
     FM050600 20008KT P6SM SCT250=



000
FTUS46 KSTO 041132
TAFSMF
TAF
KSMF 041132Z 0412/0512 15010KT P6SM FEW150 FEW250
     FM042000 18010KT P6SM VCSH SCT120 BKN250
     FM050200 19013KT P6SM SCT150 BKN250
     FM050600 15010KT P6SM SCT250=



000
FTUS46 KSTO 041132
TAFRDD
TAF
KRDD 041132Z 0412/0512 18005KT P6SM SKC
     FM042100 18010KT P6SM SCT250
     FM050400 15004KT P6SM BKN250=



000
FTUS46 KSTO 041132
TAFSAC
TAF
KSAC 041132Z 0412/0512 19009KT P6SM FEW250
     FM041700 21011KT P6SM SCT150 BKN250
     FM042000 22012G17KT P6SM VCSH SCT120 BKN250
     FM050600 20008KT P6SM SCT250=



000
FTUS46 KSTO 041132
TAFRBL
TAF
KRBL 041132Z 0412/0512 14008KT P6SM SKC
     FM042000 17011KT P6SM BKN250
     FM050400 36003KT P6SM BKN250=



000
FTUS46 KSTO 041132
TAFMHR
TAF
KMHR 041132Z 0412/0512 16008KT P6SM SKC
     FM041800 20009KT P6SM SCT150 BKN250
     FM042000 21011KT P6SM VCSH SCT120 BKN250
     FM050600 20008KT P6SM SCT250=



000
FTUS46 KSTO 041132
TAFSMF
TAF
KSMF 041132Z 0412/0512 15010KT P6SM FEW150 FEW250
     FM042000 18010KT P6SM VCSH SCT120 BKN250
     FM050200 19013KT P6SM SCT150 BKN250
     FM050600 15010KT P6SM SCT250=



000
FTUS46 KSTO 041132
TAFSCK
TAF
KSCK 041132Z 0412/0512 30011KT P6SM SCT250
     FM042300 29014KT P6SM BKN250
     FM050600 30010KT P6SM SKC=



000
FTUS46 KSTO 040522
TAFRBL
TAF
KRBL 040522Z 0406/0506 17006KT P6SM SKC
     FM040800 VRB03KT P6SM SKC
     FM042000 17011KT P6SM BKN250
     FM050400 36003KT P6SM BKN250=



000
FTUS46 KSTO 040522
TAFRDD
TAF
KRDD 040522Z 0406/0506 VRB04KT P6SM SKC
     FM042100 18010KT P6SM SCT250
     FM050400 15004KT P6SM BKN250=



000
FTUS46 KSTO 040522
TAFSMF
TAF
KSMF 040522Z 0406/0506 17011KT P6SM FEW250
     FM040700 15011KT P6SM FEW250
     FM041900 19008KT P6SM SCT150 BKN250=



000
FTUS46 KSTO 040522
TAFSAC
TAF
KSAC 040522Z 0406/0506 21009KT P6SM FEW250
     FM041700 21010G18KT P6SM SCT150 BKN250=



000
FTUS46 KSTO 040522
TAFMHR
TAF
KMHR 040522Z 0406/0506 16008KT P6SM SKC
     FM041800 20009KT P6SM SCT150 BKN250=



000
FTUS46 KSTO 040522
TAFSCK
TAF
KSCK 040522Z 0406/0506 29013KT P6SM SCT250
     FM040900 31007KT P6SM BKN250
     FM042300 29012KT P6SM BKN250=



000
FTUS46 KSTO 040522
TAFRBL
TAF
KRBL 040522Z 0406/0506 17006KT P6SM SKC
     FM040800 VRB03KT P6SM SKC
     FM042000 17011KT P6SM BKN250
     FM050400 36003KT P6SM BKN250=



000
FTUS46 KSTO 040522
TAFRDD
TAF
KRDD 040522Z 0406/0506 VRB04KT P6SM SKC
     FM042100 18010KT P6SM SCT250
     FM050400 15004KT P6SM BKN250=



000
FTUS46 KSTO 040522
TAFMHR
TAF
KMHR 040522Z 0406/0506 16008KT P6SM SKC
     FM041800 20009KT P6SM SCT150 BKN250=



000
FTUS46 KSTO 040522
TAFSCK
TAF
KSCK 040522Z 0406/0506 29013KT P6SM SCT250
     FM040900 31007KT P6SM BKN250
     FM042300 29012KT P6SM BKN250=



000
FTUS46 KSTO 040522
TAFSMF
TAF
KSMF 040522Z 0406/0506 17011KT P6SM FEW250
     FM040700 15011KT P6SM FEW250
     FM041900 19008KT P6SM SCT150 BKN250=



000
FTUS46 KSTO 040522
TAFSAC
TAF
KSAC 040522Z 0406/0506 21009KT P6SM FEW250
     FM041700 21010G18KT P6SM SCT150 BKN250=



000
FTUS46 KSTO 040009 AAA
TAFRDD
TAF AMD
KRDD 040009Z 0400/0424 16011G20KT P6SM SKC
     FM040200 17009KT P6SM SKC
     FM040500 VRB04KT P6SM SKC
     FM042100 18009KT P6SM SCT250=



000
FTUS46 KSTO 040009 AAA
TAFRDD
TAF AMD
KRDD 040009Z 0400/0424 16011G20KT P6SM SKC
     FM040200 17009KT P6SM SKC
     FM040500 VRB04KT P6SM SKC
     FM042100 18009KT P6SM SCT250=



000
FTUS46 KSTO 032333
TAFSAC
TAF
KSAC 032333Z 0400/0424 22012G18KT P6SM FEW250
     FM040600 19008KT P6SM SKC
     FM041700 21010G16KT P6SM BKN250=



000
FTUS46 KSTO 032333
TAFSMF
TAF
KSMF 032333Z 0400/0424 17011KT P6SM FEW250
     FM040700 15010KT P6SM SKC
     FM041900 19008KT P6SM BKN250=



000
FTUS46 KSTO 032333
TAFSCK
TAF
KSCK 032333Z 0400/0424 29013KT P6SM SCT250
     FM040900 31007KT P6SM BKN250=



000
FTUS46 KSTO 032333
TAFRDD
TAF
KRDD 032333Z 0400/0424 17010KT P6SM SKC
     FM040500 VRB04KT P6SM SKC
     FM042100 18009KT P6SM SCT250=



000
FTUS46 KSTO 032333
TAFMHR
TAF
KMHR 032333Z 0400/0424 22009KT P6SM FEW250
     FM040600 16008KT P6SM SKC
     FM041800 20007KT P6SM BKN250=



000
FTUS46 KSTO 032333
TAFRBL
TAF
KRBL 032333Z 0400/0424 16010KT P6SM SKC
     FM040600 VRB03KT P6SM SKC
     FM042000 16008KT P6SM SCT250=



000
FTUS46 KSTO 032333
TAFRDD
TAF
KRDD 032333Z 0400/0424 17010KT P6SM SKC
     FM040500 VRB04KT P6SM SKC
     FM042100 18009KT P6SM SCT250=



000
FTUS46 KSTO 032333
TAFSAC
TAF
KSAC 032333Z 0400/0424 22012G18KT P6SM FEW250
     FM040600 19008KT P6SM SKC
     FM041700 21010G16KT P6SM BKN250=



000
FTUS46 KSTO 032333
TAFMHR
TAF
KMHR 032333Z 0400/0424 22009KT P6SM FEW250
     FM040600 16008KT P6SM SKC
     FM041800 20007KT P6SM BKN250=



000
FTUS46 KSTO 032333
TAFSMF
TAF
KSMF 032333Z 0400/0424 17011KT P6SM FEW250
     FM040700 15010KT P6SM SKC
     FM041900 19008KT P6SM BKN250=



000
FTUS46 KSTO 032333
TAFSCK
TAF
KSCK 032333Z 0400/0424 29013KT P6SM SCT250
     FM040900 31007KT P6SM BKN250=



000
FTUS46 KSTO 032333
TAFRBL
TAF
KRBL 032333Z 0400/0424 16010KT P6SM SKC
     FM040600 VRB03KT P6SM SKC
     FM042000 16008KT P6SM SCT250=



000
FTUS46 KSTO 031738
TAFSCK
TAF
KSCK 031738Z 0318/0418 30008KT P6SM SCT250
     FM032100 30011G17KT P6SM SKC
     FM040700 32007KT P6SM OVC250=



000
FTUS46 KSTO 031738
TAFSMF
TAF
KSMF 031738Z 0318/0418 15008KT P6SM SCT250
     FM031900 18010G15KT P6SM SCT250
     FM040700 16010KT P6SM SKC=



000
FTUS46 KSTO 031738
TAFSAC
TAF
KSAC 031738Z 0318/0418 17010G15KT P6SM SCT250
     FM032300 23012G18KT P6SM SKC=



000
FTUS46 KSTO 031738
TAFMHR
TAF
KMHR 031738Z 0318/0418 20009KT P6SM SCT250
     FM032300 23010KT P6SM SKC
      AMD NOT SKED=



000
FTUS46 KSTO 031738
TAFRDD
TAF
KRDD 031738Z 0318/0418 VRB05KT P6SM FEW250
     FM032200 17007KT P6SM FEW250
     FM040600 VRB03KT P6SM FEW250=



000
FTUS46 KSTO 031738
TAFRBL
TAF
KRBL 031738Z 0318/0418 14005KT P6SM FEW250
     FM032200 17009KT P6SM FEW250
     FM040600 VRB03KT P6SM SKC=



000
FTUS46 KSTO 031132
TAFSCK
TAF
KSCK 031132Z 0312/0412 29011KT P6SM SCT250
     FM032100 30013G19KT P6SM SKC
     FM040700 32007KT P6SM OVC250=



000
FTUS46 KSTO 031132
TAFRDD
TAF
KRDD 031132Z 0312/0412 VRB05KT P6SM FEW250
     FM032200 17007KT P6SM FEW250
     FM040600 VRB03KT P6SM FEW250=



000
FTUS46 KSTO 031132
TAFSAC
TAF
KSAC 031132Z 0312/0412 17010KT P6SM SCT250
      TEMPO 0314/0317 SCT018
     FM032300 23012G18KT P6SM SKC=



000
FTUS46 KSTO 031132
TAFRBL
TAF
KRBL 031132Z 0312/0412 14005KT P6SM FEW250
     FM032200 17009KT P6SM FEW250
     FM040600 VRB03KT P6SM SKC=



000
FTUS46 KSTO 031132
TAFMHR
TAF
KMHR 031132Z 0312/0412 18009KT P6SM SCT250
      TEMPO 0314/0317 BKN018
     FM032300 23010KT P6SM SKC
      AMD NOT SKED=



000
FTUS46 KSTO 031132
TAFSMF
TAF
KSMF 031132Z 0312/0412 14011KT P6SM SCT250
     FM031400 17012G17KT P6SM SCT250
     FM032100 20008KT P6SM SKC=



000
FTUS46 KSTO 030526
TAFRBL
TAF
KRBL 030526Z 0306/0406 VRB05KT P6SM FEW250
     FM032200 16009KT P6SM FEW250=



000
FTUS46 KSTO 030526
TAFSAC
TAF
KSAC 030526Z 0306/0406 19010KT P6SM SCT250
     FM032300 23012G18KT P6SM SKC=



000
FTUS46 KSTO 030526
TAFSCK
TAF
KSCK 030526Z 0306/0406 30010G18KT P6SM SCT250=



000
FTUS46 KSTO 030526
TAFRDD
TAF
KRDD 030526Z 0306/0406 VRB05KT P6SM FEW250
     FM032200 17007KT P6SM FEW250=



000
FTUS46 KSTO 030526
TAFMHR
TAF
KMHR 030526Z 0306/0406 18009KT P6SM SCT250
     FM032300 23010KT P6SM SKC=



000
FTUS46 KSTO 030526
TAFSMF
TAF
KSMF 030526Z 0306/0406 16010KT P6SM SCT250
     FM031800 20008KT P6SM SKC=



000
FTUS46 KSTO 030526
TAFSMF
TAF
KSMF 030526Z 0306/0406 16010KT P6SM SCT250
     FM031800 20008KT P6SM SKC=



000
FTUS46 KSTO 030526
TAFRBL
TAF
KRBL 030526Z 0306/0406 VRB05KT P6SM FEW250
     FM032200 16009KT P6SM FEW250=



000
FTUS46 KSTO 030526
TAFSCK
TAF
KSCK 030526Z 0306/0406 30010G18KT P6SM SCT250=



000
FTUS46 KSTO 030526
TAFSAC
TAF
KSAC 030526Z 0306/0406 19010KT P6SM SCT250
     FM032300 23012G18KT P6SM SKC=



000
FTUS46 KSTO 030526
TAFMHR
TAF
KMHR 030526Z 0306/0406 18009KT P6SM SCT250
     FM032300 23010KT P6SM SKC=



000
FTUS46 KSTO 030526
TAFRDD
TAF
KRDD 030526Z 0306/0406 VRB05KT P6SM FEW250
     FM032200 17007KT P6SM FEW250=



000
FTUS46 KSTO 022323
TAFSMF
TAF
KSMF 022323Z 0300/0324 16010KT P6SM SCT250
      TEMPO 0300/0304 5SM HZ
     FM031800 20008KT P6SM SKC=



000
FTUS46 KSTO 022323
TAFSMF
TAF
KSMF 022323Z 0300/0324 16010KT P6SM SCT250
      TEMPO 0300/0304 5SM HZ
     FM031800 20008KT P6SM SKC=



000
FTUS46 KSTO 022323
TAFSCK
TAF
KSCK 022323Z 0300/0324 30010G18KT P6SM SCT250
     FM030700 32005KT P6SM FEW250
     FM032100 30010G18KT P6SM SKC=



000
FTUS46 KSTO 022323
TAFSAC
TAF
KSAC 022323Z 0300/0324 21010G17KT P6SM SCT250
     FM030500 18006KT P6SM SCT250
     FM031600 20008KT P6SM SKC=



000
FTUS46 KSTO 022323
TAFRDD
TAF
KRDD 022323Z 0300/0324 VRB05KT P6SM FEW250
     FM032200 17007KT P6SM FEW250=



000
FTUS46 KSTO 022323
TAFRBL
TAF
KRBL 022323Z 0300/0324 VRB05KT P6SM FEW250
     FM032200 16009KT P6SM FEW250=



000
FTUS46 KSTO 022323
TAFMHR
TAF
KMHR 022323Z 0300/0324 22009KT P6SM SCT250
      TEMPO 0300/0304 5SM HZ
     FM030600 16007KT P6SM SCT250
     FM031600 21007KT P6SM SKC=



000
FTUS46 KSTO 022323
TAFRDD
TAF
KRDD 022323Z 0300/0324 VRB05KT P6SM FEW250
     FM032200 17007KT P6SM FEW250=



000
FTUS46 KSTO 022323
TAFMHR
TAF
KMHR 022323Z 0300/0324 22009KT P6SM SCT250
      TEMPO 0300/0304 5SM HZ
     FM030600 16007KT P6SM SCT250
     FM031600 21007KT P6SM SKC=



000
FTUS46 KSTO 022323
TAFRBL
TAF
KRBL 022323Z 0300/0324 VRB05KT P6SM FEW250
     FM032200 16009KT P6SM FEW250=



000
FTUS46 KSTO 022323
TAFSAC
TAF
KSAC 022323Z 0300/0324 21010G17KT P6SM SCT250
     FM030500 18006KT P6SM SCT250
     FM031600 20008KT P6SM SKC=



000
FTUS46 KSTO 022323
TAFSCK
TAF
KSCK 022323Z 0300/0324 30010G18KT P6SM SCT250
     FM030700 32005KT P6SM FEW250
     FM032100 30010G18KT P6SM SKC=



000
FTUS46 KSTO 021724
TAFSAC
TAF
KSAC 021724Z 0218/0318 22008KT P6SM FEW250
     FM030100 21010G18KT P6SM SCT250
     FM030500 18006KT P6SM SKC=



000
FTUS46 KSTO 021724
TAFRDD
TAF
KRDD 021724Z 0218/0318 18006KT P6SM VCSH SCT120 BKN200
     FM022200 19011KT P6SM SCT200
     FM030500 VRB05KT P6SM SKC=



000
FTUS46 KSTO 021724
TAFSMF
TAF
KSMF 021724Z 0218/0318 17009KT P6SM FEW250
     FM030000 16013KT P6SM SCT250
     FM030700 15007KT P6SM SKC=



000
FTUS46 KSTO 021724
TAFSCK
TAF
KSCK 021724Z 0218/0318 31008KT P6SM SCT250
     FM030000 30012G18KT P6SM SCT250
     FM030700 32007KT P6SM SKC=



000
FTUS46 KSTO 021724
TAFMHR
TAF
KMHR 021724Z 0218/0318 21009KT P6SM FEW250
     FM030600 16007KT P6SM SKC=



000
FTUS46 KSTO 021724
TAFRBL
TAF
KRBL 021724Z 0218/0318 16010KT P6SM SCT200
     FM030300 16006KT P6SM SKC=



000
FTUS46 KSTO 021334 AAA
TAFRBL
TAF AMD
KRBL 021334Z 0214/0312 14006KT P6SM SCT150
     FM022200 15012KT P6SM FEW120=



000
FTUS46 KSTO 021334 AAA
TAFRBL
TAF AMD
KRBL 021334Z 0214/0312 14006KT P6SM SCT150
     FM022200 15012KT P6SM FEW120=



000
FTUS46 KSTO 021333 AAA
TAFRDD
TAF AMD
KRDD 021333Z 0214/0312 17008KT P6SM FEW070 BKN150
     FM022200 19011KT P6SM SCT120=



000
FTUS46 KSTO 021333 AAA
TAFRDD
TAF AMD
KRDD 021333Z 0214/0312 17008KT P6SM FEW070 BKN150
     FM022200 19011KT P6SM SCT120=



000
FTUS46 KSTO 021120
TAFRBL
TAF
KRBL 021120Z 0212/0312 VRB05KT P6SM VCTS BKN150CB
     FM021400 VRB04KT P6SM SCT150
     FM022200 15012KT P6SM FEW120=



000
FTUS46 KSTO 021120
TAFRDD
TAF
KRDD 021120Z 0212/0312 VRB05KT P6SM VCTS BKN150CB
     FM021500 VRB05KT P6SM SCT150
     FM022200 19011KT P6SM SCT120=



000
FTUS46 KSTO 021120
TAFMHR
TAF
KMHR 021120Z 0212/0312 16006KT P6SM FEW200
     FM022100 22008KT P6SM FEW200
     FM030600 16008KT P6SM SKC
      AMD NOT SKED=



000
FTUS46 KSTO 021120
TAFSAC
TAF
KSAC 021120Z 0212/0312 18006KT P6SM FEW200
     FM022300 22012G18KT P6SM FEW200=



000
FTUS46 KSTO 021120
TAFMHR
TAF
KMHR 021120Z 0212/0312 16006KT P6SM FEW200
     FM022100 22008KT P6SM FEW200
     FM030600 16008KT P6SM SKC
      AMD NOT SKED=



000
FTUS46 KSTO 021120
TAFSAC
TAF
KSAC 021120Z 0212/0312 18006KT P6SM FEW200
     FM022300 22012G18KT P6SM FEW200=



000
FTUS46 KSTO 021120
TAFRBL
TAF
KRBL 021120Z 0212/0312 VRB05KT P6SM VCTS BKN150CB
     FM021400 VRB04KT P6SM SCT150
     FM022200 15012KT P6SM FEW120=



000
FTUS46 KSTO 021120
TAFRDD
TAF
KRDD 021120Z 0212/0312 VRB05KT P6SM VCTS BKN150CB
     FM021500 VRB05KT P6SM SCT150
     FM022200 19011KT P6SM SCT120=



000
FTUS46 KSTO 021120
TAFSCK
TAF
KSCK 021120Z 0212/0312 32008KT P6SM FEW250
     FM022300 30012G18KT P6SM FEW200
     FM030800 30008KT P6SM SKC=



000
FTUS46 KSTO 021120
TAFSCK
TAF
KSCK 021120Z 0212/0312 32008KT P6SM FEW250
     FM022300 30012G18KT P6SM FEW200
     FM030800 30008KT P6SM SKC=



000
FTUS46 KSTO 021120
TAFSMF
TAF
KSMF 021120Z 0212/0312 16009KT P6SM FEW200
     FM030000 18012G18KT P6SM FEW200=



000
FTUS46 KSTO 021120
TAFSMF
TAF
KSMF 021120Z 0212/0312 16009KT P6SM FEW200
     FM030000 18012G18KT P6SM FEW200=



000
FTUS46 KSTO 020540
TAFSMF
TAF
KSMF 020540Z 0206/0306 17010KT P6SM SCT150
     FM030100 18014G20KT P6SM SCT200=



000
FTUS46 KSTO 020540
TAFRBL
TAF
KRBL 020540Z 0206/0306 16010KT P6SM VCTS BKN080CB
     FM021200 VRB04KT P6SM SCT100
     FM022200 16010KT P6SM SKC=



000
FTUS46 KSTO 020540
TAFRDD
TAF
KRDD 020540Z 0206/0306 18008KT P6SM VCTS BKN080CB
     FM021200 VRB04KT P6SM SCT100
     FM022300 18012G18KT P6SM SKC=



000
FTUS46 KSTO 020540
TAFSCK
TAF
KSCK 020540Z 0206/0306 27011KT P6SM SKC
     FM021500 31008KT P6SM SKC
     FM022300 29012G18KT P6SM SKC=



000
FTUS46 KSTO 020540
TAFMHR
TAF
KMHR 020540Z 0206/0306 20010KT P6SM SKC
     FM021000 16007KT P6SM SKC
     FM030200 22012G18KT P6SM SKC=



000
FTUS46 KSTO 020540
TAFSAC
TAF
KSAC 020540Z 0206/0306 18008KT P6SM SCT150
     FM030100 18012G20KT P6SM SCT200=



000
FTUS46 KSTO 012320
TAFSAC
TAF
KSAC 012320Z 0200/0224 22009G16KT P6SM SKC
     FM020600 18007KT P6SM SKC
     FM021500 21010KT P6SM SKC=



000
FTUS46 KSTO 012320
TAFSMF
TAF
KSMF 012320Z 0200/0224 17010KT P6SM SKC=



000
FTUS46 KSTO 012320
TAFSCK
TAF
KSCK 012320Z 0200/0224 29011KT P6SM SKC
     FM020800 VRB05KT P6SM SKC
     FM021500 31008KT P6SM SKC=



000
FTUS46 KSTO 012320
TAFSMF
TAF
KSMF 012320Z 0200/0224 17010KT P6SM SKC=



000
FTUS46 KSTO 012320
TAFMHR
TAF
KMHR 012320Z 0200/0224 20010KT P6SM SKC
     FM020500 15007KT P6SM SKC
     FM021400 21007KT P6SM SKC=



000
FTUS46 KSTO 012320
TAFRBL
TAF
KRBL 012320Z 0200/0224 16008KT P6SM SKC=



000
FTUS46 KSTO 012320
TAFSAC
TAF
KSAC 012320Z 0200/0224 22009G16KT P6SM SKC
     FM020600 18007KT P6SM SKC
     FM021500 21010KT P6SM SKC=



000
FTUS46 KSTO 012320
TAFRDD
TAF
KRDD 012320Z 0200/0224 VRB05KT P6SM SKC
     FM022200 18008KT P6SM SKC=



000
FTUS46 KSTO 012320
TAFSCK
TAF
KSCK 012320Z 0200/0224 29011KT P6SM SKC
     FM020800 VRB05KT P6SM SKC
     FM021500 31008KT P6SM SKC=



000
FTUS46 KSTO 012320
TAFRBL
TAF
KRBL 012320Z 0200/0224 16008KT P6SM SKC=



000
FTUS46 KSTO 012320
TAFMHR
TAF
KMHR 012320Z 0200/0224 20010KT P6SM SKC
     FM020500 15007KT P6SM SKC
     FM021400 21007KT P6SM SKC=



000
FTUS46 KSTO 012320
TAFRDD
TAF
KRDD 012320Z 0200/0224 VRB05KT P6SM SKC
     FM022200 18008KT P6SM SKC=



    US Dept of Commerce
    National Oceanic and Atmospheric Administration
    National Weather Service
    1325 East West Highway
    Silver Spring, MD 20910
    Page Author: NWS Internet Services Team
Disclaimer
Information Quality
Credits
Glossary
Privacy Policy
Freedom of Information Act (FOIA)
About Us
Career Opportunities